KPPO

Details ICAO KPPO
Name LA PORTE MUNI
Region United States
Timezone America/Chicago (UTC-6.0)
Plans Departing 2
Arriving 1
Stats Elevation 812 ft / 247 m (AMSL)
Location 41.572662° -86.734535°
Runways 2
Magnetic Variation 4.587° W
Sunrise 2017-12-12 13:05:57 UTC / 2017-12-12 07:05:57 Local
Sunset 2017-12-12 22:18:28 UTC / 2017-12-12 16:18:28 Local
Advertisement - Login to hide

Runways

ID Width Length Bearing (true) Bearing (mag) Surface Threshold Offset Overrun Length
02 75 ft / 23 m 5,004 ft / 1,525 m 20.03° 24.62° Asphalt 0 ft / 0 m 0 ft / 0 m
14 60 ft / 18 m 2,799 ft / 853 m 134.29° 138.88° Asphalt 200 ft / 61 m 0 ft / 0 m
20 75 ft / 23 m 5,004 ft / 1,525 m 200.04° 204.63° Asphalt 0 ft / 0 m 0 ft / 0 m
32 60 ft / 18 m 2,799 ft / 853 m 314.29° 318.88° Asphalt 200 ft / 61 m 0 ft / 0 m

Map

Weather


0- 5 10 15 20 25 30 35+ Temperature / ° C

Clouds and Precipitation
Forecast for 2017-12-13 00:00 UTC. Updated 42 minutes ago

Ground ~20,000 ft ~40,000 ft Winds

METAR

KPPO 122355Z AUTO 28006KT 10SM SCT065 SCT075 OVC100 M07/M12 A2999 RMK AO2 T10671124 11058 21067

TAF

Not found

Frequencies

Recorded 119.82 MHz AWOS 3
Approach 132.05 MHz SOUTH BEND APP/DEP
Unicom 123.00 MHz CTAF/UNICOM
Warning: Do not use this data for real-world aviation or navigation. No guarantee of current accuracy is given.